Skip to main content.

Nearby METAR Reports

 

KJYR - York, Nebraska, USA
Distance from station: NW 27mi, 43km
Updated: Wed, 20-Feb-2019 2:35pm CST
Clear
Clear
 Wind from SW
Wind: SW 16 mph , 26 km/h
Temperature: 25°F , -4°C
Wind Chill: 12°F , -11°C
Dew Point: 19°F , -7°C
Humidity: 80%
Barometer: 29.69 inHg , 1005.4 hPa
Clouds: Clear
Visibility: 10 miles , 16 km
2019/02/20 20:35 KJYR 202035Z AUTO 23014KT 10SM CLR M04/M07 A2969 RMK AO2
KLNK - Lincoln, Nebraska, USA
Distance from station: ENE 27mi, 44km
Updated: Wed, 20-Feb-2019 1:54pm CST
Clear
Clear
 Wind from SW
Wind: SW 13 mph , 20 km/h
Temperature: 27°F , -3°C
Wind Chill: 16°F , -9°C
Dew Point: 18°F , -8°C
Humidity: 69%
Barometer: 29.73 inHg , 1006.8 hPa
Clouds: Clear
Visibility: 7 miles , 11 km
2019/02/20 19:54 KLNK 201954Z 23011KT 7SM CLR M03/M08 A2973 RMK AO2 SLP082 T10331078
 
KBIE - Beatrice Municip, Nebraska, USA
Distance from station: SE 36mi, 58km
Updated: Wed, 20-Feb-2019 2:35pm CST
Clear
Clear
 Wind from WSW
Wind: WSW 14 mph , 22 km/h
Temperature: 30°F , -1°C
Wind Chill: 19°F , -7°C
Dew Point: 21°F , -6°C
Humidity: 69%
Barometer: 29.73 inHg , 1006.8 hPa
Clouds: Clear
Visibility: 10 miles , 16 km
2019/02/20 20:35 KBIE 202035Z AUTO 25012KT 10SM CLR M01/M06 A2973 RMK AO2 T10101060
KHJH - Hebron Muni, Nebraska, USA
Distance from station: SSW 40mi, 64km
Updated: Wed, 20-Feb-2019 2:35pm CST
Clear
Clear
 Wind from WSW
Wind: WSW 10 mph , 17 km/h, Gust: 16 mph , 26 km/h
Temperature: 32°F , 0°C
Wind Chill: 24°F , -4°C
Dew Point: 21°F , -6°C
Humidity: 64%
Barometer: 29.74 inHg , 1007.1 hPa
Clouds: Clear
Visibility: 4 miles , 6 km
2019/02/20 20:35 KHJH 202035Z AUTO 25009G14KT 4SM UP CLR 00/M06 A2974 RMK AO2 T10051
 
KAUH - Aurora, Nebraska, USA
Distance from station: WNW 44mi, 70km
Updated: Wed, 20-Feb-2019 2:35pm CST
Clear
Clear
 Wind from WSW
Wind: WSW 20 mph , 31 km/h
Temperature: 25°F , -4°C
Wind Chill: 11°F , -12°C
Dew Point: 19°F , -7°C
Humidity: 80%
Barometer: 29.68 inHg , 1005.1 hPa
Clouds: Clear
Visibility: 10 miles , 16 km
2019/02/20 20:35 KAUH 202035Z AUTO 24017KT 10SM CLR M04/M07 A2968 RMK AO2 T10381074
KAHQ - Wahoo, Nebraska, USA
Distance from station: NE 51mi, 82km
Updated: Wed, 20-Feb-2019 2:35pm CST
Clear
Clear
 Wind from WSW
Wind: WSW 14 mph , 22 km/h
Temperature: 27°F , -3°C
Wind Chill: 16°F , -9°C
Dew Point: 18°F , -8°C
Humidity: 69%
Barometer: 29.69 inHg , 1005.4 hPa
Clouds: Clear
Visibility: 10 miles , 16 km
2019/02/20 20:35 KAHQ 202035Z AUTO 24012KT 10SM CLR M03/M08 A2969 RMK AO2 T10261077
 
KOLU - Columbus Muni, Nebraska, USA
Distance from station: N 55mi, 88km
Updated: Wed, 20-Feb-2019 1:56pm CST
Clear
Clear
 Wind from SW
Wind: SW 10 mph , 17 km/h, Gust: 18 mph , 30 km/h
Temperature: 28°F , -2°C
Wind Chill: 19°F , -7°C
Dew Point: 18°F , -8°C
Humidity: 64%
Barometer: 29.67 inHg , 1004.7 hPa
Clouds: Clear
Visibility: 9 miles , 14 km
2019/02/20 19:56 KOLU 201956Z AUTO 23009G16KT 9SM CLR M02/M08 A2967 RMK AO2 SNB23E39 SLP068 P0000 T10221078 FZRANO
KGRI - Grand Island, Nebraska, USA
Distance from station: WNW 61mi, 99km
Updated: Wed, 20-Feb-2019 1:53pm CST
Clear
Clear
 Wind from WSW
Wind: WSW 16 mph , 26 km/h
Temperature: 27°F , -3°C
Wind Chill: 15°F , -9°C
Dew Point: 18°F , -8°C
Humidity: 69%
Barometer: 29.66 inHg , 1004.4 hPa
Clouds: Clear
Visibility: 8 miles , 13 km
2019/02/20 19:53 KGRI 201953Z 24014KT 8SM CLR M03/M08 A2966 RMK AO2 SLP073 T10331083
 
KHSI - Hastings, Nebraska, USA
Distance from station: W 64mi, 103km
Updated: Wed, 20-Feb-2019 1:53pm CST
Haze, Clear
Haze, Clear
 Wind from SW
Wind: SW 10 mph , 17 km/h
Temperature: 25°F , -4°C
Wind Chill: 15°F , -9°C
Dew Point: 18°F , -8°C
Humidity: 74%
Barometer: 29.68 inHg , 1005.1 hPa
Summary: Haze
Clouds: Clear
Visibility: 6 miles , 10 km
2019/02/20 19:53 KHSI 201953Z AUTO 23009KT 6SM HZ CLR M04/M08 A2968 RMK AO2 SLP078 T10441083
KFET - Fremont Muni Arp, Nebraska, USA
Distance from station: NNE 66mi, 106km
Updated: Wed, 20-Feb-2019 2:35pm CST
Clear
Clear
 Wind from SSW
Wind: SSW 10 mph , 17 km/h
Temperature: 28°F , -2°C
Wind Chill: 19°F , -7°C
Dew Point: 19°F , -7°C
Humidity: 69%
Barometer: 29.69 inHg , 1005.4 hPa
Clouds: Clear
Visibility: 10 miles , 16 km
2019/02/20 20:35 KFET 202035Z AUTO 20009KT 10SM CLR M02/M07 A2969 RMK AO2 T10181071
 
KMLE - Omaha/Millard, Nebraska, USA
Distance from station: NE 69mi, 110km
Updated: Wed, 20-Feb-2019 2:35pm CST
Clear
Clear
 Wind from WSW
Wind: WSW 12 mph , 19 km/h, Gust: 18 mph , 30 km/h
Temperature: 30°F , -1°C
Wind Chill: 20°F , -7°C
Dew Point: 19°F , -7°C
Humidity: 64%
Barometer: 29.70 inHg , 1005.8 hPa
Clouds: Clear
Visibility: 10 miles , 16 km
2019/02/20 20:35 KMLE 202035Z AUTO 25010G16KT 10SM CLR M01/M07 A2970 RMK AO2 T10151075
KPMV - Plattsmouth Muni, Nebraska, USA
Distance from station: ENE 71mi, 114km
Updated: Wed, 20-Feb-2019 2:35pm CST
Clear
Clear
 Wind from WSW
Wind: WSW 12 mph , 19 km/h
Temperature: 28°F , -2°C
Wind Chill: 18°F , -8°C
Dew Point: 21°F , -6°C
Humidity: 74%
Barometer: 29.70 inHg , 1005.8 hPa
Clouds: Clear
Visibility: 10 miles , 16 km
2019/02/20 20:35 KPMV 202035Z AUTO 25010KT 10SM CLR M02/M06 A2970 RMK AO2 T10201063
 
KAFK - Nebraska City, Nebraska, USA
Distance from station: E 72mi, 116km
Updated: Wed, 20-Feb-2019 2:35pm CST
Clear
Clear
 Wind from WSW
Wind: WSW 17 mph , 28 km/h
Temperature: 28°F , -2°C
Wind Chill: 16°F , -9°C
Dew Point: 19°F , -7°C
Humidity: 69%
Barometer: 29.72 inHg , 1006.4 hPa
Clouds: Clear
Visibility: 10 miles , 16 km
2019/02/20 20:35 KAFK 202035Z AUTO 25015KT 10SM CLR M02/M07 A2972 RMK AO2 T10171075
KOFF - Offutt Afb/Belle, Nebraska, USA
Distance from station: ENE 75mi, 121km
Updated: Wed, 20-Feb-2019 1:56pm CST
Clear
Clear
 Wind from SSW
Wind: SSW 13 mph , 20 km/h
Temperature: 30°F , -1°C
Wind Chill: 20°F , -7°C
Dew Point: 23°F , -5°C
Humidity: 75%
Barometer: 29.70 inHg , 1005.8 hPa
Clouds: Clear
Visibility: 10 miles , 16 km
2019/02/20 19:56 KOFF 201956Z AUTO 21011KT 10SM CLR M01/M05 A2970 RMK AO2 SLP074 T10141051 $
 
KBTA - Blair Muni, Nebraska, USA
Distance from station: NE 78mi, 125km
Updated: Wed, 20-Feb-2019 2:35pm CST
Clear
Clear
 Wind from SW
Wind: SW 15 mph , 24 km/h, Gust: 22 mph , 35 km/h
Temperature: 27°F , -3°C
Wind Chill: 15°F , -9°C
Dew Point: 18°F , -8°C
Humidity: 69%
Barometer: 29.67 inHg , 1004.7 hPa
Clouds: Clear
Visibility: 10 miles , 16 km
2019/02/20 20:35 KBTA 202035Z AUTO 23013G19KT 10SM CLR M03/M08 A2967 RMK AO2 T10311079
KCNK - Concordia, Kansas, USA
Distance from station: SSW 80mi, 129km
Updated: Wed, 20-Feb-2019 1:55pm CST
Clear
Clear
 Wind from WSW
Wind: WSW 14 mph , 22 km/h
Temperature: 28°F , -2°C
Wind Chill: 17°F , -8°C
Dew Point: 19°F , -7°C
Humidity: 69%
Barometer: 29.75 inHg , 1007.5 hPa
Clouds: Clear
Visibility: 10 miles , 16 km
2019/02/20 19:55 KCNK 201955Z AUTO 24012KT 10SM CLR M02/M07 A2975 RMK AO2 SLP089 T10171067
 
KOMA - Omaha/Eppley, Nebraska, USA
Distance from station: NE 82mi, 133km
Updated: Wed, 20-Feb-2019 1:52pm CST
Partly Cloudy
Partly Cloudy
 Wind from WSW
Wind: WSW 13 mph , 20 km/h
Temperature: 30°F , -1°C
Wind Chill: 20°F , -7°C
Dew Point: 18°F , -8°C
Humidity: 59%
Barometer: 29.69 inHg , 1005.4 hPa
Clouds: Partly Cloudy
Visibility: 10 miles , 16 km
Cloud details: Partly Cloudy 2200 ft
2019/02/20 19:52 KOMA 201952Z 25011KT 10SM SCT022 M01/M08 A2969 RMK AO2 SLP066 T10111083
KBVN - Albion Muni, Nebraska, USA
Distance from station: NNW 86mi, 138km
Updated: Wed, 20-Feb-2019 2:35pm CST
Clear
Clear
 Wind from WSW
Wind: WSW 10 mph , 17 km/h
Temperature: 25°F , -4°C
Wind Chill: 15°F , -9°C
Dew Point: 18°F , -8°C
Humidity: 74%
Barometer: 29.63 inHg , 1003.4 hPa
Clouds: Clear
Visibility: 10 miles , 16 km
2019/02/20 20:35 KBVN 202035Z AUTO 24009KT 10SM CLR M04/M08 A2963 RMK AO2 T10361085
 
KCBF - Council Bluffs, Iowa, USA
Distance from station: ENE 87mi, 139km
Updated: Wed, 20-Feb-2019 2:35pm CST
Clear
Clear
 Wind from WSW
Wind: WSW 17 mph , 28 km/h, Gust: 24 mph , 39 km/h
Temperature: 27°F , -3°C
Wind Chill: 14°F , -10°C
Dew Point: 21°F , -6°C
Humidity: 80%
Barometer: 29.67 inHg , 1004.7 hPa
Clouds: Clear
Visibility: 10 miles , 16 km
2019/02/20 20:35 KCBF 202035Z AUTO 24015G21KT 10SM CLR M03/M06 A2967 RMK AO2
KOFK - Norfolk, Nebraska, USA
Distance from station: N 92mi, 148km
Updated: Wed, 20-Feb-2019 1:56pm CST
Clear
Clear
 Wind from WSW
Wind: WSW 12 mph , 19 km/h
Temperature: 21°F , -6°C
Wind Chill: 9°F , -13°C
Dew Point: 16°F , -9°C
Humidity: 80%
Barometer: 29.61 inHg , 1002.7 hPa
Clouds: Clear
Visibility: 8 miles , 13 km
2019/02/20 19:56 KOFK 201956Z AUTO 24010KT 8SM CLR M06/M09 A2961 RMK AO2 UPE03 SLP051 P0001 T10561089

Metar display script from Saratoga-Weather.org